createdAt,value
2023-03-21T00:00:56.857Z,9.00
2023-03-21T00:03:59.840Z,9.10
2023-03-21T00:07:03.066Z,9.10
2023-03-21T00:10:15.486Z,9.10
2023-03-21T00:13:22.516Z,9.10
2023-03-21T00:16:28.101Z,9.00
2023-03-21T00:19:38.454Z,9.00
2023-03-21T00:22:42.005Z,9.00
2023-03-21T00:25:44.970Z,9.00
2023-03-21T00:28:49.842Z,9.00
2023-03-21T00:31:52.825Z,9.00
2023-03-21T00:35:16.316Z,8.90
2023-03-21T00:38:19.340Z,8.90
2023-03-21T00:41:38.945Z,9.00
2023-03-21T00:44:46.017Z,8.90
2023-03-21T00:47:49.259Z,9.00
2023-03-21T00:50:52.944Z,9.00
2023-03-21T00:53:57.213Z,8.90
2023-03-21T00:57:01.480Z,8.90
2023-03-21T01:00:10.160Z,8.80
2023-03-21T01:03:24.432Z,8.90
2023-03-21T01:06:28.367Z,8.90
2023-03-21T01:09:31.368Z,8.90
2023-03-21T01:12:34.359Z,8.90
2023-03-21T01:15:43.549Z,8.90
2023-03-21T01:18:46.553Z,8.90
2023-03-21T01:21:49.526Z,9.00
2023-03-21T01:24:56.882Z,9.00
2023-03-21T01:28:01.732Z,8.90
2023-03-21T01:31:07.601Z,9.00
2023-03-21T01:34:10.663Z,9.00
2023-03-21T01:37:14.452Z,9.00
2023-03-21T01:40:19.264Z,9.00
2023-03-21T01:43:28.080Z,9.00
2023-03-21T01:46:51.555Z,9.00
2023-03-21T01:50:03.527Z,9.10
2023-03-21T01:53:06.833Z,9.10
2023-03-21T01:56:14.629Z,9.00
2023-03-21T01:59:22.502Z,9.00
2023-03-21T02:02:31.260Z,9.00
2023-03-21T02:05:42.910Z,9.00
2023-03-21T02:08:46.710Z,9.00
2023-03-21T02:11:50.981Z,9.00
2023-03-21T02:14:56.195Z,9.00
2023-03-21T02:18:08.067Z,8.90
2023-03-21T02:21:37.290Z,9.00
2023-03-21T02:25:21.166Z,9.00
2023-03-21T02:28:27.881Z,9.10
2023-03-21T02:31:43.711Z,9.10
2023-03-21T02:35:02.657Z,9.10
2023-03-21T02:38:12.199Z,9.10
2023-03-21T02:41:21.262Z,9.10
2023-03-21T02:44:32.810Z,9.00
2023-03-21T02:47:42.181Z,9.10
2023-03-21T02:50:49.428Z,9.10
2023-03-21T02:54:24.580Z,9.10
2023-03-21T02:57:25.343Z,9.10
2023-03-21T03:00:33.468Z,9.20
2023-03-21T03:03:39.420Z,9.20
2023-03-21T03:06:53.309Z,9.20
2023-03-21T03:10:37.891Z,9.30
2023-03-21T03:13:58.129Z,9.30
2023-03-21T03:17:11.664Z,9.30
2023-03-21T03:20:25.762Z,9.30
2023-03-21T03:23:35.433Z,9.30
2023-03-21T03:26:42.679Z,9.30
2023-03-21T03:29:49.315Z,9.30
2023-03-21T03:32:56.442Z,9.40
2023-03-21T03:36:06.795Z,9.40
2023-03-21T03:39:12.514Z,9.40
2023-03-21T03:42:28.072Z,9.40
2023-03-21T03:45:38.624Z,9.40
2023-03-21T03:48:46.732Z,9.40
2023-03-21T03:51:55.392Z,9.40
2023-03-21T03:54:59.312Z,9.40
2023-03-21T03:58:06.436Z,9.40
2023-03-21T04:01:14.291Z,9.40
2023-03-21T04:04:17.898Z,9.40
2023-03-21T04:07:21.438Z,9.40
2023-03-21T04:10:24.467Z,9.40
2023-03-21T04:13:28.865Z,9.30
2023-03-21T04:16:35.562Z,9.30
2023-03-21T04:19:39.014Z,9.40
2023-03-21T04:22:42.038Z,9.30
2023-03-21T04:25:56.024Z,9.40
2023-03-21T04:29:01.272Z,9.40
2023-03-21T04:32:04.375Z,9.40
2023-03-21T04:35:09.664Z,9.40
2023-03-21T04:38:12.854Z,9.40
2023-03-21T04:41:15.793Z,9.40
2023-03-21T04:44:20.880Z,9.40
2023-03-21T04:47:24.056Z,9.30
2023-03-21T04:50:26.974Z,9.40
2023-03-21T04:53:29.967Z,9.40
2023-03-21T04:56:33.883Z,9.50
2023-03-21T04:59:38.724Z,9.50
2023-03-21T05:02:42.089Z,9.40
2023-03-21T05:05:45.010Z,9.40
2023-03-21T05:08:49.768Z,9.40
2023-03-21T05:11:52.741Z,9.40
2023-03-21T05:14:57.103Z,9.50
2023-03-21T05:18:11.450Z,9.50
2023-03-21T05:21:18.230Z,9.50
2023-03-21T05:24:22.766Z,9.50
2023-03-21T05:27:37.587Z,9.50
2023-03-21T05:30:41.930Z,9.50
2023-03-21T05:33:45.386Z,9.50
2023-03-21T05:36:48.354Z,9.60
2023-03-21T05:39:51.345Z,9.40
2023-03-21T05:42:54.322Z,9.40
2023-03-21T05:45:59.066Z,9.30
2023-03-21T05:49:02.111Z,9.30
2023-03-21T05:52:05.631Z,9.40
2023-03-21T05:55:09.361Z,9.40
2023-03-21T05:58:12.346Z,9.40
2023-03-21T06:01:16.823Z,9.20
2023-03-21T06:04:19.816Z,9.20
2023-03-21T06:07:23.288Z,9.30
2023-03-21T06:10:26.442Z,9.30
2023-03-21T06:13:31.389Z,9.30
2023-03-21T06:16:35.777Z,9.30
2023-03-21T06:19:38.728Z,9.20
2023-03-21T06:22:41.746Z,9.20
2023-03-21T06:25:44.723Z,9.30
2023-03-21T06:28:47.713Z,9.30
2023-03-21T06:31:52.012Z,9.20
2023-03-21T06:34:55.376Z,9.30
2023-03-21T06:37:59.091Z,9.30
2023-03-21T06:41:04.641Z,9.30
2023-03-21T06:44:07.652Z,9.30
2023-03-21T06:47:12.001Z,9.40
2023-03-21T06:50:15.006Z,9.40
2023-03-21T06:53:18.049Z,9.30
2023-03-21T06:56:21.001Z,9.20
2023-03-21T06:59:23.978Z,9.30
2023-03-21T07:02:28.318Z,9.50
2023-03-21T07:05:31.414Z,9.60
2023-03-21T07:08:34.381Z,9.50
2023-03-21T07:11:38.013Z,9.50
2023-03-21T07:14:40.969Z,9.50
2023-03-21T07:17:45.369Z,9.60
2023-03-21T07:20:50.953Z,9.60
2023-03-21T07:23:54.115Z,9.60
2023-03-21T07:26:57.360Z,9.70
2023-03-21T07:30:00.546Z,9.80
2023-03-21T07:33:05.792Z,9.70
2023-03-21T07:36:12.486Z,9.70
2023-03-21T07:39:15.454Z,9.80
2023-03-21T07:42:18.446Z,9.80
2023-03-21T07:45:23.615Z,9.90
2023-03-21T07:48:28.872Z,9.90
2023-03-21T07:51:31.970Z,9.90
2023-03-21T07:54:35.120Z,10.00
2023-03-21T07:57:38.083Z,10.10
2023-03-21T08:00:41.341Z,10.10
2023-03-21T08:03:45.667Z,10.20
2023-03-21T08:06:48.577Z,10.20
2023-03-21T08:09:51.613Z,10.20
2023-03-21T08:12:54.690Z,10.20
2023-03-21T08:15:57.684Z,10.20
2023-03-21T08:19:02.061Z,10.30
2023-03-21T08:22:06.658Z,10.30
2023-03-21T08:25:13.171Z,10.30
2023-03-21T08:28:16.161Z,10.40
2023-03-21T08:31:21.400Z,10.40
2023-03-21T08:34:26.403Z,10.50
2023-03-21T08:37:29.727Z,10.50
2023-03-21T08:40:33.076Z,10.50
2023-03-21T08:43:36.029Z,10.50
2023-03-21T08:46:39.094Z,10.50
2023-03-21T08:49:45.661Z,10.50
2023-03-21T08:52:48.986Z,10.50
2023-03-21T08:55:51.961Z,10.40
2023-03-21T08:58:54.922Z,10.50
2023-03-21T09:01:57.921Z,10.50
2023-03-21T09:05:02.348Z,10.40
2023-03-21T09:08:05.869Z,10.40
2023-03-21T09:11:09.555Z,10.40
2023-03-21T09:14:12.680Z,10.50
2023-03-21T09:17:15.644Z,10.50
2023-03-21T09:20:26.087Z,10.60
2023-03-21T09:23:29.501Z,10.60
2023-03-21T09:26:32.774Z,10.70
2023-03-21T09:29:35.916Z,10.70
2023-03-21T09:32:39.875Z,10.70
2023-03-21T09:35:44.718Z,10.70
2023-03-21T09:38:49.215Z,10.70
2023-03-21T09:42:06.467Z,10.80
2023-03-21T09:45:17.295Z,10.90
2023-03-21T09:48:30.228Z,10.90
2023-03-21T09:51:39.657Z,11.00
2023-03-21T09:54:44.691Z,11.00
2023-03-21T09:57:50.458Z,11.00
2023-03-21T10:00:59.967Z,11.10
2023-03-21T10:04:06.696Z,11.10
2023-03-21T10:07:18.047Z,11.10
2023-03-21T10:10:26.505Z,11.10
2023-03-21T10:13:33.373Z,11.10
2023-03-21T10:16:41.845Z,11.10
2023-03-21T10:19:46.529Z,11.20
2023-03-21T10:22:53.896Z,11.20
2023-03-21T10:25:59.985Z,11.20
2023-03-21T10:29:04.250Z,11.10
2023-03-21T10:32:09.984Z,11.10
2023-03-21T10:35:14.983Z,11.10
2023-03-21T10:38:20.748Z,11.10
2023-03-21T10:41:23.742Z,11.00
2023-03-21T10:44:32.202Z,11.00
2023-03-21T10:47:37.071Z,11.00
2023-03-21T10:50:40.556Z,11.00
2023-03-21T10:53:48.690Z,11.00
2023-03-21T10:56:58.595Z,11.00
2023-03-21T11:00:14.717Z,11.00
2023-03-21T11:03:23.955Z,11.00
2023-03-21T11:06:30.677Z,11.00
2023-03-21T11:09:47.682Z,11.00
2023-03-21T11:12:50.612Z,11.00
2023-03-21T11:15:58.174Z,11.00
2023-03-21T11:19:03.084Z,11.00
2023-03-21T11:22:07.760Z,11.00
2023-03-21T11:25:22.848Z,11.00
2023-03-21T11:28:33.230Z,10.90
2023-03-21T11:31:40.895Z,10.90
2023-03-21T11:34:48.517Z,11.00
2023-03-21T11:37:53.995Z,11.00
2023-03-21T11:41:01.094Z,11.00
2023-03-21T11:44:04.348Z,11.00
2023-03-21T11:47:10.153Z,11.10
2023-03-21T11:50:20.083Z,11.10
2023-03-21T11:53:35.428Z,11.10
2023-03-21T11:56:43.528Z,11.00
2023-03-21T11:59:53.324Z,11.10
2023-03-21T12:03:21.776Z,11.10
2023-03-21T12:06:31.291Z,11.00
2023-03-21T12:09:41.327Z,11.10
2023-03-21T12:12:53.816Z,11.20
2023-03-21T12:16:10.091Z,11.40
2023-03-21T12:19:39.183Z,11.40
2023-03-21T12:22:52.463Z,11.40
2023-03-21T12:26:01.900Z,11.50
2023-03-21T12:29:27.241Z,11.50
2023-03-21T12:32:45.473Z,11.60
2023-03-21T12:36:01.424Z,11.60
2023-03-21T12:39:16.179Z,11.60
2023-03-21T12:42:43.779Z,11.60
2023-03-21T12:45:52.457Z,11.60
2023-03-21T12:49:01.137Z,11.60
2023-03-21T12:52:08.023Z,11.60
2023-03-21T12:55:19.978Z,11.60
2023-03-21T12:58:28.205Z,11.60
2023-03-21T13:01:36.363Z,11.60
2023-03-21T13:04:44.896Z,11.50
2023-03-21T13:07:52.615Z,11.50
2023-03-21T13:10:59.516Z,11.30
2023-03-21T13:14:07.295Z,11.40
2023-03-21T13:17:20.589Z,11.40
2023-03-21T13:20:27.488Z,11.50
2023-03-21T13:23:36.634Z,11.40
2023-03-21T13:26:42.192Z,11.40
2023-03-21T13:29:50.701Z,11.40
2023-03-21T13:33:05.794Z,11.40
2023-03-21T13:36:10.063Z,11.40
2023-03-21T13:39:18.558Z,11.40
2023-03-21T13:42:31.758Z,11.30
2023-03-21T13:45:46.590Z,11.30
2023-03-21T13:49:00.587Z,11.30
2023-03-21T13:52:27.209Z,11.30
2023-03-21T13:55:31.306Z,11.40
2023-03-21T13:58:37.628Z,11.40
2023-03-21T14:01:42.345Z,11.40
2023-03-21T14:05:04.229Z,11.30
2023-03-21T14:08:15.814Z,11.20
2023-03-21T14:11:24.713Z,11.30
2023-03-21T14:14:34.649Z,11.30
2023-03-21T14:17:37.674Z,11.20
2023-03-21T14:20:42.525Z,11.20
2023-03-21T14:23:45.489Z,11.20
2023-03-21T14:26:50.680Z,11.20
2023-03-21T14:29:54.244Z,11.10
2023-03-21T14:32:58.739Z,11.10
2023-03-21T14:36:08.852Z,11.10
2023-03-21T14:39:16.730Z,11.00
2023-03-21T14:42:20.837Z,11.10
2023-03-21T14:45:26.788Z,11.10
2023-03-21T14:48:31.897Z,11.00
2023-03-21T14:51:36.233Z,11.00
2023-03-21T14:54:41.559Z,11.00
2023-03-21T14:57:44.610Z,11.00
2023-03-21T15:00:50.737Z,11.00
2023-03-21T15:03:53.848Z,11.00
2023-03-21T15:07:01.780Z,11.10
2023-03-21T15:10:07.027Z,11.10
2023-03-21T15:13:16.832Z,11.10
2023-03-21T15:16:20.751Z,11.20
2023-03-21T15:19:30.032Z,11.10
2023-03-21T15:22:38.413Z,11.10
2023-03-21T15:25:42.210Z,11.20
2023-03-21T15:28:47.283Z,11.20
2023-03-21T15:31:50.352Z,11.10
2023-03-21T15:34:56.474Z,11.00
2023-03-21T15:38:01.426Z,11.00
2023-03-21T15:41:29.157Z,10.90
2023-03-21T15:44:34.158Z,10.90
2023-03-21T15:47:42.265Z,10.90
2023-03-21T15:50:52.121Z,10.90
2023-03-21T15:53:56.452Z,11.00
2023-03-21T15:57:04.476Z,10.90
2023-03-21T16:00:21.601Z,10.90
2023-03-21T16:03:27.254Z,10.90
2023-03-21T16:06:33.968Z,11.00
2023-03-21T16:09:44.331Z,10.90
2023-03-21T16:12:47.306Z,10.90
2023-03-21T16:15:50.219Z,10.90
2023-03-21T16:18:53.682Z,10.80
2023-03-21T16:21:56.669Z,10.80
2023-03-21T16:25:00.949Z,10.80
2023-03-21T16:28:04.008Z,10.70
2023-03-21T16:31:07.234Z,10.70
2023-03-21T16:34:10.910Z,10.70
2023-03-21T16:37:15.718Z,10.70
2023-03-21T16:40:27.512Z,10.70
2023-03-21T16:43:30.464Z,10.70
2023-03-21T16:46:33.455Z,10.70
2023-03-21T16:49:36.422Z,10.70
2023-03-21T16:52:39.366Z,10.70
2023-03-21T16:55:43.833Z,10.70
2023-03-21T16:58:46.803Z,10.70
2023-03-21T17:01:50.148Z,10.70
2023-03-21T17:04:53.106Z,10.60
2023-03-21T17:07:56.232Z,10.60
2023-03-21T17:11:02.699Z,10.60
2023-03-21T17:14:06.238Z,10.60
2023-03-21T17:17:11.784Z,10.60
2023-03-21T17:20:18.659Z,10.60
2023-03-21T17:23:21.653Z,10.60
2023-03-21T17:26:28.425Z,10.60
2023-03-21T17:29:31.543Z,10.60
2023-03-21T17:32:34.511Z,10.60
2023-03-21T17:35:37.536Z,10.60
2023-03-21T17:38:40.550Z,10.60
2023-03-21T17:41:44.877Z,10.60
2023-03-21T17:44:47.856Z,10.70
2023-03-21T17:47:51.315Z,10.70
2023-03-21T17:50:54.291Z,10.70
2023-03-21T17:53:57.717Z,10.70
2023-03-21T17:57:01.974Z,10.70
2023-03-21T18:00:11.670Z,10.70
2023-03-21T18:03:14.648Z,10.70
2023-03-21T18:06:20.235Z,10.80
2023-03-21T18:09:23.337Z,10.70
2023-03-21T18:12:27.721Z,10.70
2023-03-21T18:15:31.160Z,10.70
2023-03-21T18:18:35.070Z,10.70
2023-03-21T18:21:40.543Z,10.70
2023-03-21T18:24:43.529Z,10.70
2023-03-21T18:28:09.445Z,10.70
2023-03-21T18:31:19.321Z,10.70
2023-03-21T18:34:22.914Z,10.70
2023-03-21T18:37:26.233Z,10.70
2023-03-21T18:40:29.248Z,10.70
2023-03-21T18:46:57.554Z,10.70
2023-03-21T18:50:16.374Z,10.70
2023-03-21T18:53:19.316Z,10.70
2023-03-21T18:57:13.211Z,10.70
2023-03-21T18:59:46.853Z,10.70
2023-03-21T19:02:51.912Z,10.70
2023-03-21T19:05:59.220Z,10.80
2023-03-21T19:09:02.286Z,10.80
2023-03-21T19:12:06.308Z,10.80
2023-03-21T19:15:11.909Z,10.80
2023-03-21T19:18:37.589Z,10.80
2023-03-21T19:21:38.099Z,10.80
2023-03-21T19:24:41.385Z,10.80
2023-03-21T19:27:44.587Z,10.80
2023-03-21T19:30:50.488Z,10.80
2023-03-21T19:33:53.858Z,10.70
2023-03-21T19:36:57.440Z,10.80
2023-03-21T19:40:00.549Z,10.70
2023-03-21T19:43:23.869Z,10.60
2023-03-21T19:46:27.785Z,10.60
2023-03-21T19:49:48.826Z,10.60
2023-03-21T19:52:54.496Z,10.70
2023-03-21T19:56:01.812Z,10.70
2023-03-21T19:59:08.055Z,10.60
2023-03-21T20:02:34.122Z,10.60
2023-03-21T20:05:36.354Z,10.60
2023-03-21T20:09:23.979Z,10.70
2023-03-21T20:12:05.595Z,10.70
2023-03-21T20:15:17.584Z,10.80
2023-03-21T20:18:24.908Z,10.80
2023-03-21T20:21:34.785Z,10.70
2023-03-21T20:24:44.289Z,10.70
2023-03-21T20:27:47.273Z,10.70
2023-03-21T20:30:52.821Z,10.60
2023-03-21T20:33:57.172Z,10.50
2023-03-21T20:37:00.452Z,10.60
2023-03-21T20:40:08.085Z,10.60
2023-03-21T20:43:55.678Z,10.60
2023-03-21T20:46:36.468Z,10.60
2023-03-21T20:49:41.837Z,10.60
2023-03-21T20:53:01.149Z,10.70
2023-03-21T20:56:08.619Z,10.70
2023-03-21T20:59:20.884Z,10.70
2023-03-21T21:02:28.762Z,10.80
2023-03-21T21:05:35.072Z,10.80
2023-03-21T21:08:38.663Z,10.90
2023-03-21T21:12:06.642Z,10.90
2023-03-21T21:15:05.056Z,11.00
2023-03-21T21:18:08.540Z,11.00
2023-03-21T21:21:14.008Z,11.00
2023-03-21T21:24:16.993Z,11.10
2023-03-21T21:27:20.057Z,11.10
2023-03-21T21:30:23.174Z,11.20
2023-03-21T21:33:29.121Z,11.20
2023-03-21T21:36:33.389Z,11.20
2023-03-21T21:39:37.940Z,11.10
2023-03-21T21:42:42.551Z,11.20
2023-03-21T21:45:46.108Z,11.20
2023-03-21T21:48:49.793Z,11.20
2023-03-21T21:51:54.047Z,11.20
2023-03-21T21:54:56.994Z,11.20
2023-03-21T21:58:00.205Z,11.20
2023-03-21T22:01:03.238Z,11.20
2023-03-21T22:04:08.501Z,11.10
2023-03-21T22:07:14.622Z,11.20
2023-03-21T22:10:17.817Z,11.20
2023-03-21T22:13:20.772Z,11.30
2023-03-21T22:16:23.921Z,11.30
2023-03-21T22:19:27.621Z,11.20
2023-03-21T22:22:32.293Z,11.20
2023-03-21T22:25:35.262Z,11.20
2023-03-21T22:28:40.170Z,11.20
2023-03-21T22:31:44.193Z,11.20
2023-03-21T22:34:47.170Z,11.10
2023-03-21T22:37:51.434Z,11.10
2023-03-21T22:40:55.880Z,11.10
2023-03-21T22:43:58.793Z,11.10
2023-03-21T22:47:01.978Z,11.00
2023-03-21T22:50:05.608Z,11.00
2023-03-21T22:53:09.916Z,11.00
2023-03-21T22:56:12.864Z,11.00
2023-03-21T22:59:16.101Z,11.00
2023-03-21T23:02:19.345Z,10.90
2023-03-21T23:05:22.342Z,10.80
2023-03-21T23:08:27.139Z,10.70
2023-03-21T23:11:30.195Z,10.70
2023-03-21T23:14:33.130Z,10.60
2023-03-21T23:17:36.383Z,10.50
2023-03-21T23:20:39.618Z,10.50
2023-03-21T23:23:49.576Z,10.50
2023-03-21T23:26:52.582Z,10.40
2023-03-21T23:29:56.589Z,10.40
2023-03-21T23:32:59.531Z,10.30
2023-03-21T23:36:02.607Z,10.30
2023-03-21T23:39:07.515Z,10.30
2023-03-21T23:42:10.464Z,10.30
2023-03-21T23:45:13.385Z,10.20
2023-03-21T23:48:16.346Z,10.20
2023-03-21T23:51:19.561Z,10.20
2023-03-21T23:54:23.868Z,10.10
2023-03-21T23:57:27.044Z,10.20
